createdAt,value
2022-10-25T00:00:45.688Z,3.10
2022-10-25T00:03:12.900Z,2.42
2022-10-25T00:05:40.492Z,2.65
2022-10-25T00:08:07.616Z,2.35
2022-10-25T00:10:34.815Z,2.78
2022-10-25T00:13:01.860Z,2.65
2022-10-25T00:15:28.935Z,2.38
2022-10-25T00:17:56.023Z,2.22
2022-10-25T00:20:23.037Z,2.25
2022-10-25T00:22:50.083Z,2.65
2022-10-25T00:25:17.141Z,3.13
2022-10-25T00:27:44.164Z,3.67
2022-10-25T00:30:11.563Z,3.05
2022-10-25T00:32:38.561Z,3.35
2022-10-25T00:35:05.760Z,3.58
2022-10-25T00:37:32.864Z,3.10
2022-10-25T00:39:59.952Z,2.80
2022-10-25T00:42:27.169Z,2.78
2022-10-25T00:44:54.395Z,3.00
2022-10-25T00:47:21.376Z,3.50
2022-10-25T00:49:50.138Z,3.05
2022-10-25T00:52:17.146Z,3.30
2022-10-25T00:54:45.640Z,3.25
2022-10-25T00:57:16.958Z,3.50
2022-10-25T00:59:44.435Z,3.58
2022-10-25T01:02:11.838Z,3.83
2022-10-25T01:04:38.947Z,4.25
2022-10-25T01:07:05.959Z,3.33
2022-10-25T01:09:33.776Z,4.07
2022-10-25T01:12:00.874Z,3.55
2022-10-25T01:14:27.877Z,3.30
2022-10-25T01:17:01.728Z,4.05
2022-10-25T01:19:28.778Z,3.05
2022-10-25T01:22:06.982Z,3.70
2022-10-25T01:24:38.434Z,3.67
2022-10-25T01:27:08.555Z,3.53
2022-10-25T01:29:53.587Z,3.58
2022-10-25T01:32:20.570Z,3.33
2022-10-25T01:34:51.202Z,3.22
2022-10-25T01:37:24.311Z,3.33
2022-10-25T01:40:14.647Z,4.13
2022-10-25T01:42:45.260Z,3.55
2022-10-25T01:45:50.823Z,3.63
2022-10-25T01:48:20.155Z,4.00
2022-10-25T01:50:47.202Z,3.60
2022-10-25T01:53:14.360Z,3.10
2022-10-25T01:55:46.919Z,3.30
2022-10-25T01:58:17.783Z,3.40
2022-10-25T02:00:49.041Z,3.40
2022-10-25T02:03:16.104Z,3.70
2022-10-25T02:05:48.915Z,3.50
2022-10-25T02:08:18.982Z,3.30
2022-10-25T02:10:51.396Z,3.25
2022-10-25T02:13:38.730Z,3.00
2022-10-25T02:16:07.000Z,3.33
2022-10-25T02:18:35.320Z,3.35
2022-10-25T02:21:02.326Z,3.20
2022-10-25T02:23:29.355Z,3.05
2022-10-25T02:25:56.387Z,2.78
2022-10-25T02:28:24.595Z,3.28
2022-10-25T02:30:51.664Z,3.78
2022-10-25T02:33:18.684Z,2.88
2022-10-25T02:35:45.720Z,3.47
2022-10-25T02:38:12.727Z,3.90
2022-10-25T02:40:39.755Z,3.75
2022-10-25T02:43:06.763Z,3.58
2022-10-25T02:45:33.783Z,3.97
2022-10-25T02:48:00.816Z,4.43
2022-10-25T02:50:27.848Z,4.18
2022-10-25T02:52:54.865Z,4.38
2022-10-25T02:55:21.901Z,4.70
2022-10-25T02:57:48.911Z,4.40
2022-10-25T03:00:16.200Z,4.95
2022-10-25T03:02:43.213Z,4.53
2022-10-25T03:05:10.292Z,5.38
2022-10-25T03:07:37.376Z,4.90
2022-10-25T03:10:04.496Z,4.80
2022-10-25T03:12:31.500Z,5.30
2022-10-25T03:14:58.536Z,6.30
2022-10-25T03:17:25.535Z,6.57
2022-10-25T03:19:52.548Z,7.60
2022-10-25T03:22:19.550Z,8.80
2022-10-25T03:24:46.570Z,8.80
2022-10-25T03:27:13.595Z,9.23
2022-10-25T03:29:40.620Z,9.40
2022-10-25T03:32:07.736Z,8.73
2022-10-25T03:34:34.812Z,8.20
2022-10-25T03:37:01.838Z,8.30
2022-10-25T03:39:28.842Z,8.27
2022-10-25T03:41:55.848Z,9.60
2022-10-25T03:44:22.861Z,8.82
2022-10-25T03:46:49.893Z,8.80
2022-10-25T03:49:16.985Z,9.45
2022-10-25T03:51:44.070Z,9.32
2022-10-25T03:54:11.116Z,8.80
2022-10-25T03:56:38.137Z,8.00
2022-10-25T03:59:05.155Z,8.23
2022-10-25T04:01:32.264Z,9.10
2022-10-25T04:03:59.365Z,7.75
2022-10-25T04:06:26.394Z,8.05
2022-10-25T04:08:53.449Z,7.63
2022-10-25T04:11:20.460Z,6.85
2022-10-25T04:13:47.461Z,6.78
2022-10-25T04:16:17.046Z,6.95
2022-10-25T04:18:46.044Z,6.22
2022-10-25T04:21:13.064Z,7.05
2022-10-25T04:23:40.078Z,6.63
2022-10-25T04:26:07.095Z,6.90
2022-10-25T04:28:34.117Z,6.75
2022-10-25T04:31:01.132Z,9.00
2022-10-25T04:33:28.179Z,9.48
2022-10-25T04:35:56.330Z,8.60
2022-10-25T04:38:23.765Z,10.45
2022-10-25T04:40:54.586Z,11.20
2022-10-25T04:43:21.587Z,11.27
2022-10-25T04:45:48.654Z,11.27
2022-10-25T04:48:15.678Z,10.73
2022-10-25T04:50:42.716Z,11.70
2022-10-25T04:53:09.741Z,13.25
2022-10-25T04:55:36.747Z,12.18
2022-10-25T04:58:03.817Z,13.52
2022-10-25T05:00:30.835Z,13.32
2022-10-25T05:02:57.955Z,14.07
2022-10-25T05:05:25.399Z,14.25
2022-10-25T05:07:52.419Z,13.45
2022-10-25T05:10:19.491Z,12.30
2022-10-25T05:12:46.763Z,11.98
2022-10-25T05:15:13.972Z,12.18
2022-10-25T05:17:41.002Z,12.50
2022-10-25T05:20:08.174Z,11.60
2022-10-25T05:22:35.204Z,12.23
2022-10-25T05:25:02.223Z,12.38
2022-10-25T05:27:29.242Z,13.43
2022-10-25T05:29:56.250Z,12.88
2022-10-25T05:32:23.348Z,12.57
2022-10-25T05:34:50.429Z,12.00
2022-10-25T05:37:17.444Z,13.65
2022-10-25T05:39:44.452Z,15.13
2022-10-25T05:42:11.481Z,16.20
2022-10-25T05:44:38.500Z,17.92
2022-10-25T05:47:05.578Z,16.10
2022-10-25T05:49:34.109Z,15.93
2022-10-25T05:52:01.102Z,13.07
2022-10-25T05:54:28.103Z,10.88
2022-10-25T05:56:55.129Z,11.73
2022-10-25T05:59:22.155Z,11.52
2022-10-25T06:01:49.219Z,12.73
2022-10-25T06:04:16.497Z,13.45
2022-10-25T06:06:43.871Z,14.98
2022-10-25T06:09:10.971Z,13.57
2022-10-25T06:11:38.137Z,12.80
2022-10-25T06:14:05.311Z,13.93
2022-10-25T06:16:32.517Z,12.18
2022-10-25T06:18:59.541Z,12.00
2022-10-25T06:21:27.349Z,12.65
2022-10-25T06:23:54.540Z,12.50
2022-10-25T06:26:25.767Z,13.05
2022-10-25T06:28:53.270Z,13.98
2022-10-25T06:31:20.455Z,13.65
2022-10-25T06:33:47.497Z,12.70
2022-10-25T06:36:16.599Z,12.70
2022-10-25T06:38:44.001Z,12.82
2022-10-25T06:41:12.298Z,14.13
2022-10-25T06:43:39.319Z,14.98
2022-10-25T06:46:06.935Z,19.25
2022-10-25T06:48:33.962Z,15.18
2022-10-25T06:51:02.156Z,15.70
2022-10-25T06:53:29.181Z,13.85
2022-10-25T06:56:04.292Z,13.05
2022-10-25T06:58:32.323Z,13.40
2022-10-25T07:01:03.447Z,12.43
2022-10-25T07:03:34.789Z,13.73
2022-10-25T07:06:08.151Z,12.90
2022-10-25T07:08:35.559Z,13.90
2022-10-25T07:11:02.651Z,14.35
2022-10-25T07:13:30.439Z,14.93
2022-10-25T07:16:03.771Z,15.65
2022-10-25T07:18:31.161Z,15.32
2022-10-25T07:21:01.751Z,14.73
2022-10-25T07:25:55.749Z,13.32
2022-10-25T07:28:22.794Z,13.75
2022-10-25T07:30:49.918Z,13.57
2022-10-25T07:33:18.211Z,14.32
2022-10-25T07:35:59.124Z,13.55
2022-10-25T07:38:35.799Z,10.35
2022-10-25T07:41:02.804Z,10.60
2022-10-25T07:43:29.959Z,10.50
2022-10-25T07:45:56.990Z,14.30
2022-10-25T07:48:24.063Z,10.50
2022-10-25T07:50:51.164Z,7.60
2022-10-25T07:53:18.215Z,7.63
2022-10-25T07:55:50.534Z,7.25
2022-10-25T07:58:17.539Z,7.13
2022-10-25T08:00:44.577Z,7.93
2022-10-25T08:03:11.596Z,8.25
2022-10-25T08:05:38.616Z,8.30
2022-10-25T08:08:05.697Z,7.57
2022-10-25T08:10:32.770Z,6.82
2022-10-25T08:12:59.890Z,6.45
2022-10-25T08:15:26.904Z,5.82
2022-10-25T08:18:00.407Z,4.93
2022-10-25T08:20:43.420Z,4.43
2022-10-25T08:23:14.572Z,3.90
2022-10-25T08:25:41.631Z,3.60
2022-10-25T08:28:08.722Z,3.45
2022-10-25T08:30:35.751Z,3.20
2022-10-25T08:33:02.865Z,2.70
2022-10-25T08:35:29.936Z,3.53
2022-10-25T08:37:56.953Z,4.20
2022-10-25T08:40:25.608Z,4.25
2022-10-25T08:42:52.641Z,3.97
2022-10-25T08:45:21.614Z,3.60
2022-10-25T08:47:49.094Z,3.55
2022-10-25T08:50:16.426Z,3.45
2022-10-25T08:52:55.537Z,3.10
2022-10-25T08:55:25.074Z,3.25
2022-10-25T08:57:52.103Z,3.17
2022-10-25T09:00:20.877Z,2.97
2022-10-25T09:02:57.488Z,2.97
2022-10-25T09:05:30.719Z,3.17
2022-10-25T09:08:17.979Z,3.00
2022-10-25T09:10:45.041Z,3.30
2022-10-25T09:13:16.022Z,3.10
2022-10-25T09:16:03.303Z,2.55
2022-10-25T09:18:33.754Z,3.65
2022-10-25T09:21:00.791Z,4.07
2022-10-25T09:23:31.662Z,3.17
2022-10-25T09:26:05.675Z,3.40
2022-10-25T09:28:35.862Z,3.58
2022-10-25T09:33:30.553Z,2.67
2022-10-25T09:35:58.067Z,3.65
2022-10-25T09:38:36.972Z,3.40
2022-10-25T09:41:05.085Z,3.40
2022-10-25T09:43:36.717Z,2.78
2022-10-25T09:46:06.619Z,2.45
2022-10-25T09:48:42.792Z,2.40
2022-10-25T09:51:48.343Z,2.15
2022-10-25T09:54:36.184Z,2.40
2022-10-25T09:57:03.252Z,2.33
2022-10-25T09:59:30.270Z,2.38
2022-10-25T10:01:57.391Z,2.20
2022-10-25T10:04:26.196Z,2.90
2022-10-25T10:06:54.638Z,1.65
2022-10-25T10:09:21.693Z,1.98
2022-10-25T10:11:48.815Z,2.08
2022-10-25T10:14:15.925Z,1.60
2022-10-25T10:16:44.535Z,1.70
2022-10-25T10:19:21.087Z,1.70
2022-10-25T10:21:58.164Z,1.83
2022-10-25T10:24:28.299Z,1.88
2022-10-25T10:26:57.212Z,1.50
2022-10-25T10:29:24.604Z,1.52
2022-10-25T10:31:55.428Z,1.30
2022-10-25T10:34:31.605Z,1.35
2022-10-25T10:37:02.172Z,1.30
2022-10-25T10:39:29.235Z,1.20
2022-10-25T10:42:02.963Z,1.35
2022-10-25T10:44:30.975Z,1.08
2022-10-25T10:46:58.092Z,1.02
2022-10-25T10:49:37.122Z,1.02
2022-10-25T10:52:04.333Z,1.40
2022-10-25T10:54:31.881Z,1.17
2022-10-25T10:57:02.669Z,1.25
2022-10-25T10:59:37.150Z,1.10
2022-10-25T11:02:13.537Z,0.75
2022-10-25T11:04:47.791Z,0.75
2022-10-25T11:07:15.287Z,0.82
2022-10-25T11:09:42.324Z,0.80
2022-10-25T11:12:12.524Z,0.57
2022-10-25T11:14:39.584Z,1.10
2022-10-25T11:17:25.444Z,0.60
2022-10-25T11:20:03.867Z,0.90
2022-10-25T11:22:39.965Z,0.70
2022-10-25T11:25:07.072Z,1.02
2022-10-25T11:27:50.018Z,0.68
2022-10-25T11:30:21.081Z,0.60
2022-10-25T11:32:51.505Z,0.85
2022-10-25T11:35:18.675Z,0.60
2022-10-25T11:37:51.851Z,0.63
2022-10-25T11:40:23.404Z,0.80
2022-10-25T11:42:56.627Z,0.80
2022-10-25T11:45:41.655Z,0.73
2022-10-25T11:48:17.597Z,0.50
2022-10-25T11:50:56.929Z,0.60
2022-10-25T11:53:30.068Z,0.80
2022-10-25T11:55:59.406Z,0.52
2022-10-25T11:59:01.945Z,0.82
2022-10-25T12:01:31.639Z,0.60
2022-10-25T12:04:17.242Z,0.60
2022-10-25T12:07:04.554Z,0.32
2022-10-25T12:09:46.147Z,0.65
2022-10-25T12:12:13.858Z,0.57
2022-10-25T12:14:48.639Z,0.60
2022-10-25T12:17:22.264Z,0.60
2022-10-25T12:19:49.356Z,0.57
2022-10-25T12:22:21.239Z,0.47
2022-10-25T12:24:52.603Z,0.52
2022-10-25T12:27:19.707Z,1.10
2022-10-25T12:29:47.470Z,1.05
2022-10-25T12:32:19.547Z,0.80
2022-10-25T12:34:49.148Z,0.40
2022-10-25T12:37:22.190Z,0.50
2022-10-25T12:39:49.203Z,0.75
2022-10-25T12:42:23.637Z,1.50
2022-10-25T12:45:09.556Z,1.88
2022-10-25T12:47:42.654Z,1.65
2022-10-25T12:50:09.737Z,1.80
2022-10-25T12:52:40.721Z,1.63
2022-10-25T12:55:26.615Z,2.00
2022-10-25T12:57:56.137Z,1.90
2022-10-25T13:00:23.761Z,1.93
2022-10-25T13:03:10.391Z,1.90
2022-10-25T13:05:49.908Z,1.75
2022-10-25T13:08:17.477Z,1.65
2022-10-25T13:10:45.512Z,1.58
2022-10-25T13:13:33.650Z,1.70
2022-10-25T13:16:01.671Z,2.03
2022-10-25T13:18:34.819Z,2.00
2022-10-25T13:21:02.503Z,1.65
2022-10-25T13:23:38.703Z,1.30
2022-10-25T13:26:08.044Z,1.38
2022-10-25T13:28:43.639Z,1.73
2022-10-25T13:31:31.139Z,1.50
2022-10-25T13:34:13.390Z,1.50
2022-10-25T13:36:49.662Z,1.40
2022-10-25T13:39:17.014Z,1.67
2022-10-25T13:41:45.459Z,1.77
2022-10-25T13:44:22.099Z,1.70
2022-10-25T13:46:49.161Z,1.67
2022-10-25T13:49:35.707Z,1.83
2022-10-25T13:52:05.350Z,1.65
2022-10-25T13:54:38.496Z,1.15
2022-10-25T13:57:05.622Z,1.63
2022-10-25T13:59:36.870Z,1.48
2022-10-25T14:02:24.221Z,1.35
2022-10-25T14:04:51.316Z,1.48
2022-10-25T14:07:37.132Z,1.23
2022-10-25T14:10:04.281Z,1.05
2022-10-25T14:12:31.277Z,1.23
2022-10-25T14:15:05.440Z,1.48
2022-10-25T14:17:38.600Z,1.38
2022-10-25T14:20:31.725Z,1.25
2022-10-25T14:23:00.236Z,1.50
2022-10-25T14:25:36.553Z,1.73
2022-10-25T14:28:16.537Z,1.25
2022-10-25T14:30:43.752Z,1.50
2022-10-25T14:33:21.314Z,1.10
2022-10-25T14:35:49.252Z,1.40
2022-10-25T14:38:20.332Z,1.30
2022-10-25T14:40:51.029Z,1.50
2022-10-25T14:43:24.343Z,1.50
2022-10-25T14:45:58.039Z,1.70
2022-10-25T14:48:25.269Z,1.35
2022-10-25T14:50:52.522Z,1.23
2022-10-25T14:53:19.610Z,1.42
2022-10-25T14:55:53.817Z,1.63
2022-10-25T14:58:20.918Z,1.20
2022-10-25T15:01:14.391Z,1.08
2022-10-25T15:03:42.216Z,1.27
2022-10-25T15:06:09.260Z,1.20
2022-10-25T15:08:37.303Z,1.60
2022-10-25T15:11:06.757Z,1.17
2022-10-25T15:13:42.161Z,1.40
2022-10-25T15:16:28.973Z,1.40
2022-10-25T15:19:06.067Z,1.05
2022-10-25T15:21:59.460Z,1.50
2022-10-25T15:24:27.325Z,1.13
2022-10-25T15:26:54.352Z,1.30
2022-10-25T15:29:39.851Z,1.50
2022-10-25T15:32:07.826Z,1.20
2022-10-25T15:34:34.854Z,1.45
2022-10-25T15:37:01.899Z,1.45
2022-10-25T15:39:29.608Z,1.80
2022-10-25T15:41:56.708Z,1.40
2022-10-25T15:44:23.747Z,1.40
2022-10-25T15:46:50.854Z,1.63
2022-10-25T15:49:17.914Z,2.05
2022-10-25T15:51:45.096Z,1.50
2022-10-25T15:54:16.324Z,2.22
2022-10-25T15:56:43.628Z,1.52
2022-10-25T15:59:10.814Z,1.60
2022-10-25T16:01:38.581Z,1.48
2022-10-25T16:04:05.739Z,1.65
2022-10-25T16:06:32.761Z,1.50
2022-10-25T16:08:59.776Z,1.40
2022-10-25T16:11:26.770Z,1.55
2022-10-25T16:13:53.799Z,2.13
2022-10-25T16:16:41.236Z,1.50
2022-10-25T16:19:18.072Z,3.00
2022-10-25T16:21:46.247Z,1.73
2022-10-25T16:24:13.349Z,1.67
2022-10-25T16:26:42.642Z,1.65
2022-10-25T16:29:13.414Z,1.67
2022-10-25T16:31:40.393Z,1.48
2022-10-25T16:34:07.414Z,1.90
2022-10-25T16:36:34.439Z,1.77
2022-10-25T16:39:01.452Z,1.60
2022-10-25T16:41:31.693Z,3.33
2022-10-25T16:43:58.827Z,4.80
2022-10-25T16:46:26.335Z,4.72
2022-10-25T16:48:54.952Z,4.07
2022-10-25T16:51:25.704Z,7.28
2022-10-25T16:53:52.759Z,4.38
2022-10-25T16:56:19.756Z,2.83
2022-10-25T16:58:46.793Z,2.70
2022-10-25T17:01:17.826Z,2.90
2022-10-25T17:03:45.069Z,2.10
2022-10-25T17:06:28.653Z,2.63
2022-10-25T17:08:59.134Z,2.28
2022-10-25T17:11:26.155Z,2.15
2022-10-25T17:13:53.168Z,2.22
2022-10-25T17:16:20.300Z,2.35
2022-10-25T17:18:47.340Z,2.60
2022-10-25T17:21:15.239Z,2.78
2022-10-25T17:23:42.559Z,2.40
2022-10-25T17:26:11.424Z,2.65
2022-10-25T17:28:43.040Z,3.30
2022-10-25T17:31:11.680Z,2.85
2022-10-25T17:33:38.803Z,5.28
2022-10-25T17:36:09.458Z,4.78
2022-10-25T17:38:36.540Z,4.80
2022-10-25T17:41:03.882Z,5.70
2022-10-25T17:43:30.912Z,3.90
2022-10-25T17:46:02.014Z,3.38
2022-10-25T17:48:29.286Z,3.72
2022-10-25T17:51:09.117Z,10.90
2022-10-25T17:53:36.192Z,11.15
2022-10-25T17:56:13.035Z,9.43
2022-10-25T17:58:43.052Z,6.90
2022-10-25T18:01:10.622Z,7.32
2022-10-25T18:03:38.040Z,6.50
2022-10-25T18:06:06.220Z,6.28
2022-10-25T18:08:33.244Z,7.35
2022-10-25T18:11:00.267Z,7.00
2022-10-25T18:13:29.241Z,7.38
2022-10-25T18:15:56.317Z,9.00
2022-10-25T18:18:23.356Z,8.18
2022-10-25T18:20:51.619Z,8.00
2022-10-25T18:23:19.019Z,5.85
2022-10-25T18:25:52.652Z,6.35
2022-10-25T18:28:20.116Z,6.38
2022-10-25T18:30:47.116Z,7.43
2022-10-25T18:33:14.951Z,7.82
2022-10-25T18:35:42.385Z,7.68
2022-10-25T18:38:09.374Z,7.00
2022-10-25T18:40:36.515Z,7.25
2022-10-25T18:43:03.518Z,7.93
2022-10-25T18:45:30.622Z,7.82
2022-10-25T18:47:59.021Z,8.50
2022-10-25T18:50:26.432Z,7.85
2022-10-25T18:52:53.527Z,7.80
2022-10-25T18:55:26.177Z,7.72
2022-10-25T18:57:54.692Z,8.13
2022-10-25T19:00:26.354Z,8.82
2022-10-25T19:02:53.881Z,8.70
2022-10-25T19:05:21.193Z,16.23
2022-10-25T19:07:48.360Z,10.23
2022-10-25T19:10:15.627Z,10.25
2022-10-25T19:12:42.641Z,10.93
2022-10-25T19:15:09.812Z,15.35
2022-10-25T19:17:37.066Z,10.82
2022-10-25T19:20:04.563Z,9.48
2022-10-25T19:22:31.592Z,10.27
2022-10-25T19:27:30.531Z,9.98
2022-10-25T19:29:57.749Z,10.45
2022-10-25T19:32:24.765Z,9.52
2022-10-25T19:37:23.856Z,7.90
2022-10-25T19:39:53.323Z,6.50
2022-10-25T19:42:22.538Z,6.70
2022-10-25T19:44:51.780Z,6.88
2022-10-25T19:47:18.806Z,7.00
2022-10-25T19:49:45.873Z,6.13
2022-10-25T19:52:12.891Z,9.05
2022-10-25T19:54:39.983Z,8.93
2022-10-25T19:57:07.579Z,8.68
2022-10-25T19:59:34.724Z,7.20
2022-10-25T20:02:03.939Z,33.00
2022-10-25T20:04:31.041Z,10.90
2022-10-25T20:07:01.257Z,8.05
2022-10-25T20:09:28.290Z,8.43
2022-10-25T20:11:58.790Z,10.38
2022-10-25T20:14:25.816Z,9.98
2022-10-25T20:16:53.271Z,12.15
2022-10-25T20:19:20.299Z,11.35
2022-10-25T20:21:47.697Z,12.13
2022-10-25T20:24:16.100Z,12.00
2022-10-25T20:26:47.195Z,11.93
2022-10-25T20:29:21.112Z,9.88
2022-10-25T20:31:48.647Z,13.43
2022-10-25T20:34:19.525Z,14.55
2022-10-25T20:36:47.156Z,12.50
2022-10-25T20:39:14.804Z,13.48
2022-10-25T20:41:47.693Z,13.90
2022-10-25T20:44:14.805Z,13.40
2022-10-25T20:46:44.958Z,13.60
2022-10-25T20:49:12.709Z,14.43
2022-10-25T20:51:40.921Z,13.98
2022-10-25T20:54:09.849Z,13.18
2022-10-25T20:56:38.431Z,14.55
2022-10-25T20:59:05.687Z,15.98
2022-10-25T21:01:32.823Z,14.93
2022-10-25T21:03:59.974Z,16.38
2022-10-25T21:06:27.461Z,13.95
2022-10-25T21:08:58.168Z,12.40
2022-10-25T21:11:29.370Z,15.35
2022-10-25T21:13:56.477Z,14.38
2022-10-25T21:16:23.703Z,16.67
2022-10-25T21:18:54.158Z,16.75
2022-10-25T21:21:21.562Z,15.00
2022-10-25T21:23:49.389Z,16.27
2022-10-25T21:26:16.489Z,16.52
2022-10-25T21:28:43.569Z,15.20
2022-10-25T21:31:11.554Z,16.48
2022-10-25T21:33:38.865Z,16.13
2022-10-25T21:36:09.503Z,16.60
2022-10-25T21:41:13.711Z,14.02
2022-10-25T21:43:44.704Z,15.23
2022-10-25T21:46:11.927Z,17.20
2022-10-25T21:48:38.956Z,16.38
2022-10-25T21:51:06.035Z,14.02
2022-10-25T21:53:33.051Z,13.75
2022-10-25T21:56:06.871Z,12.55
2022-10-25T21:58:34.026Z,12.07
2022-10-25T22:01:01.035Z,11.30
2022-10-25T22:03:31.171Z,10.05
2022-10-25T22:05:58.909Z,8.43
2022-10-25T22:08:25.939Z,10.63
2022-10-25T22:13:31.267Z,8.70
2022-10-25T22:16:05.818Z,10.70
2022-10-25T22:18:32.942Z,7.88
2022-10-25T22:21:00.850Z,7.38
2022-10-25T22:23:28.335Z,7.32
2022-10-25T22:25:55.535Z,7.65
2022-10-25T22:28:22.594Z,7.90
2022-10-25T22:30:49.604Z,8.80
2022-10-25T22:33:16.611Z,9.20
2022-10-25T22:35:43.625Z,9.48
2022-10-25T22:38:10.700Z,8.95
2022-10-25T22:40:37.761Z,8.77
2022-10-25T22:43:04.779Z,8.68
2022-10-25T22:45:31.810Z,7.72
2022-10-25T22:47:58.877Z,6.95
2022-10-25T22:50:25.892Z,6.93
2022-10-25T22:52:52.979Z,6.32
2022-10-25T22:55:20.017Z,6.50
2022-10-25T22:57:47.360Z,6.53
2022-10-25T23:00:14.910Z,13.75
2022-10-25T23:02:41.959Z,10.93
2022-10-25T23:05:09.085Z,8.20
2022-10-25T23:07:36.119Z,7.13
2022-10-25T23:10:03.187Z,6.55
2022-10-25T23:12:30.202Z,7.20
2022-10-25T23:14:57.231Z,6.97
2022-10-25T23:17:24.302Z,6.57
2022-10-25T23:19:51.302Z,6.82
2022-10-25T23:22:18.324Z,6.78
2022-10-25T23:24:45.339Z,6.75
2022-10-25T23:27:12.348Z,6.60
2022-10-25T23:29:39.424Z,6.53
2022-10-25T23:32:06.451Z,7.40
2022-10-25T23:34:34.202Z,7.68
2022-10-25T23:37:01.237Z,7.20
2022-10-25T23:39:28.257Z,7.47
2022-10-25T23:41:56.927Z,7.00
2022-10-25T23:44:24.288Z,7.50
2022-10-25T23:46:51.322Z,7.30
2022-10-25T23:49:18.379Z,6.47
2022-10-25T23:51:45.575Z,6.25
2022-10-25T23:54:12.637Z,5.85
2022-10-25T23:56:39.659Z,6.10
2022-10-25T23:59:06.687Z,6.07
